createdAt,value
2023-05-19T00:00:39.970Z,829.00
2023-05-19T00:01:40.026Z,836.00
2023-05-19T00:02:40.219Z,833.00
2023-05-19T00:03:40.149Z,830.00
2023-05-19T00:04:40.170Z,830.00
2023-05-19T00:05:40.252Z,837.00
2023-05-19T00:06:40.263Z,834.00
2023-05-19T00:07:40.309Z,828.00
2023-05-19T00:08:40.368Z,831.00
2023-05-19T00:09:40.444Z,832.00
2023-05-19T00:10:40.500Z,829.00
2023-05-19T00:11:40.568Z,832.00
2023-05-19T00:12:40.585Z,832.00
2023-05-19T00:13:40.648Z,821.00
2023-05-19T00:14:40.702Z,824.00
2023-05-19T00:15:40.752Z,835.00
2023-05-19T00:16:40.815Z,843.00
2023-05-19T00:17:40.888Z,842.00
2023-05-19T00:18:40.907Z,846.00
2023-05-19T00:19:40.864Z,845.00
2023-05-19T00:20:40.858Z,849.00
2023-05-19T00:21:40.866Z,856.00
2023-05-19T00:22:40.873Z,862.00
2023-05-19T00:23:40.929Z,849.00
2023-05-19T00:24:40.989Z,859.00
2023-05-19T00:25:40.973Z,856.00
2023-05-19T00:26:40.973Z,856.00
2023-05-19T00:27:41.017Z,857.00
2023-05-19T00:28:41.025Z,849.00
2023-05-19T00:29:41.029Z,846.00
2023-05-19T00:30:41.042Z,839.00
2023-05-19T00:31:41.056Z,844.00
2023-05-19T00:32:41.127Z,844.00
2023-05-19T00:33:41.105Z,844.00
2023-05-19T00:34:41.079Z,839.00
2023-05-19T00:35:41.185Z,840.00
2023-05-19T00:36:41.235Z,838.00
2023-05-19T00:37:41.193Z,839.00
2023-05-19T00:38:41.186Z,847.00
2023-05-19T00:39:41.212Z,854.00
2023-05-19T00:40:41.208Z,857.00
2023-05-19T00:41:41.246Z,861.00
2023-05-19T00:42:41.270Z,864.00
2023-05-19T00:43:41.251Z,867.00
2023-05-19T00:44:41.245Z,868.00
2023-05-19T00:45:41.232Z,887.00
2023-05-19T00:46:41.306Z,882.00
2023-05-19T00:47:41.322Z,882.00
2023-05-19T00:48:41.264Z,886.00
2023-05-19T00:49:41.266Z,885.00
2023-05-19T00:50:41.272Z,898.00
2023-05-19T00:51:41.275Z,888.00
2023-05-19T00:52:41.255Z,900.00
2023-05-19T00:53:41.273Z,922.00
2023-05-19T00:54:41.287Z,916.00
2023-05-19T00:55:41.262Z,914.00
2023-05-19T00:56:41.304Z,909.00
2023-05-19T00:57:41.377Z,918.00
2023-05-19T00:58:41.366Z,913.00
2023-05-19T00:59:41.404Z,925.00
2023-05-19T01:00:41.426Z,921.00
2023-05-19T01:01:41.372Z,924.00
2023-05-19T01:02:41.462Z,925.00
2023-05-19T01:03:41.590Z,939.00
2023-05-19T01:04:41.526Z,936.00
2023-05-19T01:05:41.621Z,948.00
2023-05-19T01:06:41.557Z,957.00
2023-05-19T01:07:41.561Z,949.00
2023-05-19T01:08:41.516Z,943.00
2023-05-19T01:09:41.630Z,942.00
2023-05-19T01:10:41.711Z,943.00
2023-05-19T01:11:41.847Z,936.00
2023-05-19T01:12:41.944Z,932.00
2023-05-19T01:13:42.395Z,928.00
2023-05-19T01:14:42.127Z,928.00
2023-05-19T01:15:42.214Z,931.00
2023-05-19T01:16:42.376Z,939.00
2023-05-19T01:17:42.441Z,931.00
2023-05-19T01:18:42.477Z,931.00
2023-05-19T01:19:42.486Z,929.00
2023-05-19T01:20:42.458Z,919.00
2023-05-19T01:21:42.486Z,919.00
2023-05-19T01:22:42.516Z,929.00
2023-05-19T01:23:42.554Z,934.00
2023-05-19T01:24:42.548Z,938.00
2023-05-19T01:25:42.543Z,935.00
2023-05-19T01:26:42.586Z,951.00
2023-05-19T01:27:42.554Z,940.00
2023-05-19T01:28:42.554Z,940.00
2023-05-19T01:29:42.552Z,951.00
2023-05-19T01:30:42.579Z,939.00
2023-05-19T01:31:42.652Z,951.00
2023-05-19T01:32:42.613Z,943.00
2023-05-19T01:33:42.667Z,946.00
2023-05-19T01:34:42.748Z,938.00
2023-05-19T01:35:42.757Z,936.00
2023-05-19T01:36:42.782Z,941.00
2023-05-19T01:37:42.743Z,945.00
2023-05-19T01:38:42.794Z,938.00
2023-05-19T01:39:42.817Z,942.00
2023-05-19T01:40:42.873Z,954.00
2023-05-19T01:41:43.003Z,944.00
2023-05-19T01:42:43.077Z,942.00
2023-05-19T01:43:43.146Z,952.00
2023-05-19T01:44:43.150Z,947.00
2023-05-19T01:45:43.189Z,947.00
2023-05-19T01:46:43.178Z,950.00
2023-05-19T01:47:43.202Z,946.00
2023-05-19T01:48:43.277Z,944.00
2023-05-19T01:49:43.354Z,942.00
2023-05-19T01:50:43.462Z,936.00
2023-05-19T01:51:43.535Z,925.00
2023-05-19T01:52:43.661Z,930.00
2023-05-19T01:53:43.697Z,927.00
2023-05-19T01:54:43.688Z,932.00
2023-05-19T01:55:43.689Z,944.00
2023-05-19T01:56:43.892Z,941.00
2023-05-19T01:57:43.688Z,934.00
2023-05-19T01:58:43.758Z,937.00
2023-05-19T01:59:43.781Z,937.00
2023-05-19T02:00:43.826Z,935.00
2023-05-19T02:01:43.918Z,934.00
2023-05-19T02:02:43.884Z,938.00
2023-05-19T02:03:43.872Z,935.00
2023-05-19T02:04:44.034Z,937.00
2023-05-19T02:05:43.955Z,931.00
2023-05-19T02:06:43.928Z,949.00
2023-05-19T02:07:44.007Z,939.00
2023-05-19T02:08:43.982Z,945.00
2023-05-19T02:09:44.008Z,959.00
2023-05-19T02:10:44.034Z,949.00
2023-05-19T02:11:44.067Z,950.00
2023-05-19T02:12:44.118Z,934.00
2023-05-19T02:13:44.121Z,937.00
2023-05-19T02:14:44.148Z,949.00
2023-05-19T02:15:44.208Z,944.00
2023-05-19T02:16:44.218Z,953.00
2023-05-19T02:17:44.258Z,960.00
2023-05-19T02:18:44.219Z,968.00
2023-05-19T02:19:44.241Z,957.00
2023-05-19T02:20:44.290Z,967.00
2023-05-19T02:21:44.316Z,965.00
2023-05-19T02:22:44.317Z,972.00
2023-05-19T02:23:44.317Z,972.00
2023-05-19T02:24:44.344Z,977.00
2023-05-19T02:25:44.338Z,978.00
2023-05-19T02:26:44.365Z,982.00
2023-05-19T02:27:44.394Z,981.00
2023-05-19T02:28:44.393Z,984.00
2023-05-19T02:29:44.438Z,991.00
2023-05-19T02:30:44.412Z,996.00
2023-05-19T02:31:44.438Z,997.00
2023-05-19T02:32:44.518Z,999.00
2023-05-19T02:33:44.513Z,998.00
2023-05-19T02:34:44.525Z,993.00
2023-05-19T02:35:44.529Z,995.00
2023-05-19T02:36:44.580Z,1008.00
2023-05-19T02:37:44.575Z,1001.00
2023-05-19T02:38:44.627Z,1012.00
2023-05-19T02:39:44.622Z,1017.00
2023-05-19T02:40:44.680Z,1016.00
2023-05-19T02:41:44.680Z,1006.00
2023-05-19T02:42:44.701Z,1020.00
2023-05-19T02:43:44.740Z,1008.00
2023-05-19T02:44:44.741Z,1020.00
2023-05-19T02:45:44.765Z,1007.00
2023-05-19T02:46:44.956Z,1010.00
2023-05-19T02:47:44.850Z,1013.00
2023-05-19T02:48:44.832Z,1022.00
2023-05-19T02:49:44.826Z,1029.00
2023-05-19T02:50:44.836Z,1026.00
2023-05-19T02:51:44.915Z,1036.00
2023-05-19T02:52:44.901Z,1038.00
2023-05-19T02:53:44.915Z,1043.00
2023-05-19T02:54:44.923Z,1049.00
2023-05-19T02:55:44.933Z,1055.00
2023-05-19T02:56:44.957Z,1069.00
2023-05-19T02:57:44.947Z,1071.00
2023-05-19T02:58:44.999Z,1071.00
2023-05-19T02:59:45.001Z,1078.00
2023-05-19T03:00:45.009Z,1074.00
2023-05-19T03:01:45.132Z,1080.00
2023-05-19T03:02:45.184Z,1091.00
2023-05-19T03:03:45.132Z,1092.00
2023-05-19T03:04:45.116Z,1097.00
2023-05-19T03:05:45.137Z,1101.00
2023-05-19T03:06:45.140Z,1109.00
2023-05-19T03:07:45.186Z,1124.00
2023-05-19T03:08:45.199Z,1126.00
2023-05-19T03:09:45.219Z,1122.00
2023-05-19T03:10:45.217Z,1128.00
2023-05-19T03:11:45.255Z,1131.00
2023-05-19T03:12:45.287Z,1139.00
2023-05-19T03:13:45.316Z,1143.00
2023-05-19T03:14:45.320Z,1150.00
2023-05-19T03:15:45.360Z,1152.00
2023-05-19T03:16:45.788Z,1155.00
2023-05-19T03:17:45.616Z,1161.00
2023-05-19T03:18:45.506Z,1161.00
2023-05-19T03:19:45.448Z,1169.00
2023-05-19T03:20:45.483Z,1164.00
2023-05-19T03:21:45.945Z,1169.00
2023-05-19T03:22:45.513Z,1168.00
2023-05-19T03:23:45.530Z,1164.00
2023-05-19T03:24:45.576Z,1160.00
2023-05-19T03:25:45.577Z,1167.00
2023-05-19T03:26:45.597Z,1166.00
2023-05-19T03:27:45.650Z,1161.00
2023-05-19T03:28:45.666Z,1163.00
2023-05-19T03:29:45.692Z,1155.00
2023-05-19T03:30:45.733Z,1157.00
2023-05-19T03:31:45.794Z,1167.00
2023-05-19T03:32:45.846Z,1162.00
2023-05-19T03:33:45.857Z,1159.00
2023-05-19T03:34:45.855Z,1162.00
2023-05-19T03:35:45.898Z,1160.00
2023-05-19T03:36:45.929Z,1159.00
2023-05-19T03:37:45.938Z,1168.00
2023-05-19T03:38:46.002Z,1168.00
2023-05-19T03:39:46.008Z,1168.00
2023-05-19T03:40:46.072Z,1171.00
2023-05-19T03:41:46.101Z,1183.00
2023-05-19T03:42:46.117Z,1182.00
2023-05-19T03:43:46.159Z,1187.00
2023-05-19T03:44:46.214Z,1190.00
2023-05-19T03:45:46.283Z,1193.00
2023-05-19T03:46:46.255Z,1193.00
2023-05-19T03:47:46.372Z,1187.00
2023-05-19T03:48:46.360Z,1188.00
2023-05-19T03:49:46.400Z,1189.00
2023-05-19T03:50:46.443Z,1183.00
2023-05-19T03:51:46.494Z,1177.00
2023-05-19T03:52:46.528Z,1181.00
2023-05-19T03:53:46.557Z,1190.00
2023-05-19T03:54:46.576Z,1194.00
2023-05-19T03:55:46.635Z,1198.00
2023-05-19T03:56:46.716Z,1200.00
2023-05-19T03:57:46.719Z,1199.00
2023-05-19T03:58:46.733Z,1202.00
2023-05-19T03:59:46.841Z,1208.00
2023-05-19T04:00:46.831Z,1196.00
2023-05-19T04:01:46.912Z,1205.00
2023-05-19T04:02:47.021Z,1194.00
2023-05-19T04:03:47.027Z,1199.00
2023-05-19T04:04:47.120Z,1199.00
2023-05-19T04:05:47.042Z,1217.00
2023-05-19T04:06:47.158Z,1218.00
2023-05-19T04:07:47.176Z,1221.00
2023-05-19T04:08:47.201Z,1218.00
2023-05-19T04:09:47.242Z,1210.00
2023-05-19T04:10:47.297Z,1206.00
2023-05-19T04:11:47.317Z,1214.00
2023-05-19T04:12:47.401Z,1216.00
2023-05-19T04:13:47.511Z,1214.00
2023-05-19T04:14:47.450Z,1227.00
2023-05-19T04:15:47.590Z,1223.00
2023-05-19T04:16:47.579Z,1232.00
2023-05-19T04:17:47.664Z,1242.00
2023-05-19T04:18:47.658Z,1243.00
2023-05-19T04:19:47.676Z,1251.00
2023-05-19T04:20:47.731Z,1255.00
2023-05-19T04:21:47.805Z,1252.00
2023-05-19T04:22:47.819Z,1262.00
2023-05-19T04:23:47.868Z,1274.00
2023-05-19T04:24:47.899Z,1288.00
2023-05-19T04:25:47.933Z,1285.00
2023-05-19T04:26:47.967Z,1289.00
2023-05-19T04:27:48.030Z,1297.00
2023-05-19T04:28:48.108Z,1303.00
2023-05-19T04:29:48.144Z,1307.00
2023-05-19T04:30:48.178Z,1312.00
2023-05-19T04:31:48.250Z,1321.00
2023-05-19T04:32:48.347Z,1325.00
2023-05-19T04:33:48.349Z,1334.00
2023-05-19T04:34:48.402Z,1344.00
2023-05-19T04:35:48.429Z,1347.00
2023-05-19T04:36:49.148Z,1339.00
2023-05-19T04:37:48.514Z,1331.00
2023-05-19T04:38:49.474Z,1333.00
2023-05-19T04:39:48.604Z,1330.00
2023-05-19T04:40:48.682Z,1343.00
2023-05-19T04:41:48.753Z,1340.00
2023-05-19T04:42:48.781Z,1338.00
2023-05-19T04:43:48.827Z,1330.00
2023-05-19T04:44:48.882Z,1346.00
2023-05-19T04:45:48.937Z,1352.00
2023-05-19T04:46:48.980Z,1365.00
2023-05-19T04:47:49.064Z,1367.00
2023-05-19T04:48:49.049Z,1371.00
2023-05-19T04:49:49.106Z,1380.00
2023-05-19T04:50:49.169Z,1393.00
2023-05-19T04:51:49.193Z,1422.00
2023-05-19T04:52:49.204Z,1463.00
2023-05-19T04:53:49.277Z,1473.00
2023-05-19T04:54:49.298Z,1489.00
2023-05-19T04:55:49.306Z,1497.00
2023-05-19T04:56:49.331Z,1485.00
2023-05-19T04:57:49.352Z,1490.00
2023-05-19T04:58:49.391Z,1496.00
2023-05-19T04:59:49.460Z,1497.00
2023-05-19T05:00:49.561Z,1498.00
2023-05-19T05:01:49.673Z,1503.00
2023-05-19T05:02:49.822Z,1505.00
2023-05-19T05:03:49.758Z,1514.00
2023-05-19T05:04:49.776Z,1518.00
2023-05-19T05:05:49.784Z,1508.00
2023-05-19T05:06:49.758Z,1520.00
2023-05-19T05:07:49.781Z,1511.00
2023-05-19T05:08:49.819Z,1519.00
2023-05-19T05:09:49.832Z,1503.00
2023-05-19T05:10:49.800Z,1508.00
2023-05-19T05:11:49.844Z,1517.00
2023-05-19T05:12:49.851Z,1518.00
2023-05-19T05:13:49.868Z,1531.00
2023-05-19T05:14:49.910Z,1512.00
2023-05-19T05:15:49.949Z,1523.00
2023-05-19T05:16:49.981Z,1502.00
2023-05-19T05:17:49.943Z,1505.00
2023-05-19T05:18:49.920Z,1507.00
2023-05-19T05:19:49.933Z,1504.00
2023-05-19T05:20:49.960Z,1508.00
2023-05-19T05:21:50.072Z,1504.00
2023-05-19T05:22:50.021Z,1504.00
2023-05-19T05:23:50.024Z,1506.00
2023-05-19T05:24:50.028Z,1487.00
2023-05-19T05:25:50.019Z,1464.00
2023-05-19T05:26:50.090Z,1456.00
2023-05-19T05:27:50.193Z,1459.00
2023-05-19T05:28:50.081Z,1448.00
2023-05-19T05:29:51.588Z,1450.00
2023-05-19T05:30:50.075Z,1449.00
2023-05-19T05:31:50.107Z,1447.00
2023-05-19T05:32:50.179Z,1450.00
2023-05-19T05:33:50.212Z,1444.00
2023-05-19T05:34:50.168Z,1439.00
2023-05-19T05:35:50.192Z,1445.00
2023-05-19T05:36:50.191Z,1442.00
2023-05-19T05:37:50.182Z,1447.00
2023-05-19T05:38:50.235Z,1445.00
2023-05-19T05:39:50.232Z,1457.00
2023-05-19T05:40:50.278Z,1446.00
2023-05-19T05:41:50.250Z,1450.00
2023-05-19T05:42:50.416Z,1464.00
2023-05-19T05:43:50.341Z,1474.00
2023-05-19T05:44:50.342Z,1480.00
2023-05-19T05:45:50.379Z,1493.00
2023-05-19T05:46:50.384Z,1498.00
2023-05-19T05:47:50.458Z,1497.00
2023-05-19T05:48:50.449Z,1497.00
2023-05-19T05:49:52.110Z,1525.00
2023-05-19T05:50:50.474Z,1541.00
2023-05-19T05:52:01.814Z,1535.00
2023-05-19T05:52:51.442Z,1535.00
2023-05-19T05:53:50.457Z,1536.00
2023-05-19T05:54:50.396Z,1538.00
2023-05-19T05:55:50.409Z,1533.00
2023-05-19T05:56:50.413Z,1554.00
2023-05-19T05:57:50.393Z,1554.00
2023-05-19T05:58:50.389Z,1535.00
2023-05-19T05:59:50.394Z,1549.00
2023-05-19T06:00:50.382Z,1536.00
2023-05-19T06:01:50.350Z,1536.00
2023-05-19T06:02:50.489Z,1533.00
2023-05-19T06:03:50.399Z,1528.00
2023-05-19T06:04:50.360Z,1535.00
2023-05-19T06:05:50.434Z,1529.00
2023-05-19T06:06:50.340Z,1527.00
2023-05-19T06:07:50.332Z,1543.00
2023-05-19T06:08:50.320Z,1539.00
2023-05-19T06:09:50.347Z,1556.00
2023-05-19T06:10:50.351Z,1544.00
2023-05-19T06:11:50.401Z,1542.00
2023-05-19T06:12:50.428Z,1544.00
2023-05-19T06:13:50.468Z,1538.00
2023-05-19T06:14:50.539Z,1542.00
2023-05-19T06:15:50.632Z,1563.00
2023-05-19T06:16:50.658Z,1577.00
2023-05-19T06:17:50.835Z,1582.00
2023-05-19T06:18:50.809Z,1581.00
2023-05-19T06:19:50.851Z,1597.00
2023-05-19T06:20:50.884Z,1607.00
2023-05-19T06:21:50.965Z,1606.00
2023-05-19T06:22:51.040Z,1595.00
2023-05-19T06:23:51.109Z,1605.00
2023-05-19T06:24:51.149Z,1604.00
2023-05-19T06:25:51.179Z,1611.00
2023-05-19T06:26:51.232Z,1618.00
2023-05-19T06:27:51.330Z,1637.00
2023-05-19T06:28:51.424Z,1629.00
2023-05-19T06:29:51.460Z,1616.00
2023-05-19T06:30:51.505Z,1603.00
2023-05-19T06:31:51.726Z,1591.00
2023-05-19T06:32:51.628Z,1589.00
2023-05-19T06:33:51.689Z,1591.00
2023-05-19T06:34:51.732Z,1573.00
2023-05-19T06:35:51.782Z,1567.00
2023-05-19T06:36:51.801Z,1562.00
2023-05-19T06:37:51.857Z,1545.00
2023-05-19T06:38:51.937Z,1553.00
2023-05-19T06:39:51.963Z,1549.00
2023-05-19T06:40:52.024Z,1551.00
2023-05-19T06:41:52.076Z,1559.00
2023-05-19T06:42:52.171Z,1560.00
2023-05-19T06:43:52.208Z,1563.00
2023-05-19T06:44:52.250Z,1555.00
2023-05-19T06:45:52.306Z,1566.00
2023-05-19T06:46:52.449Z,1554.00
2023-05-19T06:47:52.463Z,1566.00
2023-05-19T06:48:52.468Z,1550.00
2023-05-19T06:49:52.516Z,1530.00
2023-05-19T06:50:52.593Z,1531.00
2023-05-19T06:51:52.601Z,1534.00
2023-05-19T06:52:52.675Z,1527.00
2023-05-19T06:53:52.709Z,1520.00
2023-05-19T06:54:52.786Z,1517.00
2023-05-19T06:55:59.319Z,1519.00
2023-05-19T06:56:53.811Z,1519.00
2023-05-19T06:57:52.948Z,1521.00
2023-05-19T06:58:52.822Z,1520.00
2023-05-19T06:59:52.810Z,1514.00
2023-05-19T07:00:52.778Z,1506.00
2023-05-19T07:01:53.001Z,1527.00
2023-05-19T07:02:52.873Z,1511.00
2023-05-19T07:03:52.850Z,1517.00
2023-05-19T07:04:52.793Z,1501.00
2023-05-19T07:05:52.755Z,1501.00
2023-05-19T07:06:52.787Z,1497.00
2023-05-19T07:07:52.848Z,1453.00
2023-05-19T07:08:52.899Z,1411.00
2023-05-19T07:09:52.959Z,1391.00
2023-05-19T07:10:52.953Z,1388.00
2023-05-19T07:11:53.044Z,1398.00
2023-05-19T07:12:53.064Z,1407.00
2023-05-19T07:13:53.133Z,1401.00
2023-05-19T07:14:53.173Z,1386.00
2023-05-19T07:15:53.298Z,1373.00
2023-05-19T07:16:53.321Z,1390.00
2023-05-19T07:17:53.339Z,1399.00
2023-05-19T07:18:53.409Z,1430.00
2023-05-19T07:19:53.429Z,1410.00
2023-05-19T07:20:53.475Z,1417.00
2023-05-19T07:21:53.541Z,1379.00
2023-05-19T07:22:53.566Z,1373.00
2023-05-19T07:23:53.627Z,1387.00
2023-05-19T07:24:53.684Z,1405.00
2023-05-19T07:25:53.721Z,1403.00
2023-05-19T07:26:53.745Z,1403.00
2023-05-19T07:27:53.780Z,1379.00
2023-05-19T07:28:53.782Z,1358.00
2023-05-19T07:29:53.881Z,1371.00
2023-05-19T07:30:53.868Z,1356.00
2023-05-19T07:31:54.055Z,1377.00
2023-05-19T07:32:53.984Z,1397.00
2023-05-19T07:33:54.835Z,1396.00
2023-05-19T07:34:54.076Z,1393.00
2023-05-19T07:35:54.090Z,1357.00
2023-05-19T07:36:54.119Z,1369.00
2023-05-19T07:37:54.152Z,1356.00
2023-05-19T07:38:54.188Z,1359.00
2023-05-19T07:39:54.216Z,1348.00
2023-05-19T07:40:54.237Z,1353.00
2023-05-19T07:41:54.293Z,1394.00
2023-05-19T07:42:54.273Z,1385.00
2023-05-19T07:43:54.334Z,1394.00
2023-05-19T07:44:54.346Z,1408.00
2023-05-19T07:45:54.486Z,1416.00
2023-05-19T07:46:54.476Z,1413.00
2023-05-19T07:47:54.514Z,1422.00
2023-05-19T07:48:54.536Z,1410.00
2023-05-19T07:49:54.540Z,1405.00
2023-05-19T07:50:54.549Z,1402.00
2023-05-19T07:51:54.610Z,1403.00
2023-05-19T07:52:54.631Z,1430.00
2023-05-19T07:53:54.635Z,1427.00
2023-05-19T07:54:54.704Z,1430.00
2023-05-19T07:55:56.494Z,1433.00
2023-05-19T07:56:54.697Z,1441.00
2023-05-19T07:57:54.656Z,1439.00
2023-05-19T07:58:54.672Z,1429.00
2023-05-19T07:59:54.669Z,1435.00
2023-05-19T08:00:54.669Z,1435.00
2023-05-19T08:01:54.668Z,1440.00
2023-05-19T08:02:54.744Z,1441.00
2023-05-19T08:03:54.810Z,1440.00
2023-05-19T08:04:54.801Z,1441.00
2023-05-19T08:05:54.636Z,1418.00
2023-05-19T08:06:54.620Z,1424.00
2023-05-19T08:07:54.641Z,1411.00
2023-05-19T08:08:54.613Z,1400.00
2023-05-19T08:09:54.617Z,1384.00
2023-05-19T08:10:54.634Z,1414.00
2023-05-19T08:11:54.626Z,1385.00
2023-05-19T08:12:54.595Z,1378.00
2023-05-19T08:13:54.659Z,1372.00
2023-05-19T08:14:54.586Z,1376.00
2023-05-19T08:15:54.623Z,1377.00
2023-05-19T08:16:54.599Z,1386.00
2023-05-19T08:17:54.698Z,1392.00
2023-05-19T08:18:54.590Z,1404.00
2023-05-19T08:19:54.560Z,1379.00
2023-05-19T08:20:54.558Z,1385.00
2023-05-19T08:21:55.060Z,1383.00
2023-05-19T08:22:54.552Z,1356.00
2023-05-19T08:23:54.530Z,1347.00
2023-05-19T08:24:54.542Z,1346.00
2023-05-19T08:25:54.559Z,1351.00
2023-05-19T08:26:54.504Z,1357.00
2023-05-19T08:27:54.504Z,1350.00
2023-05-19T08:28:54.493Z,1348.00
2023-05-19T08:29:54.485Z,1337.00
2023-05-19T08:30:54.513Z,1343.00
2023-05-19T08:31:54.495Z,1317.00
2023-05-19T08:32:54.488Z,1297.00
2023-05-19T08:33:54.468Z,1272.00
2023-05-19T08:34:54.481Z,1274.00
2023-05-19T08:35:54.459Z,1290.00
2023-05-19T08:36:54.442Z,1318.00
2023-05-19T08:37:54.442Z,1323.00
2023-05-19T08:38:54.443Z,1327.00
2023-05-19T08:39:54.456Z,1337.00
2023-05-19T08:40:54.435Z,1344.00
2023-05-19T08:41:54.431Z,1355.00
2023-05-19T08:42:54.410Z,1347.00
2023-05-19T08:43:54.379Z,1308.00
2023-05-19T08:44:54.395Z,1317.00
2023-05-19T08:45:54.437Z,1315.00
2023-05-19T08:46:54.468Z,1326.00
2023-05-19T08:47:54.361Z,1353.00
2023-05-19T08:48:54.362Z,1362.00
2023-05-19T08:49:54.398Z,1394.00
2023-05-19T08:50:54.348Z,1323.00
2023-05-19T08:51:54.386Z,1327.00
2023-05-19T08:52:54.331Z,1314.00
2023-05-19T08:53:54.339Z,1320.00
2023-05-19T08:54:54.302Z,1329.00
2023-05-19T08:55:54.301Z,1355.00
2023-05-19T08:56:54.396Z,1372.00
2023-05-19T08:57:54.310Z,1392.00
2023-05-19T08:58:54.285Z,1408.00
2023-05-19T08:59:54.321Z,1426.00
2023-05-19T09:00:54.310Z,1442.00
2023-05-19T09:01:54.280Z,1431.00
2023-05-19T09:03:00.967Z,1407.00
2023-05-19T09:03:55.331Z,1407.00
2023-05-19T09:04:54.349Z,1387.00
2023-05-19T09:05:54.295Z,1383.00
2023-05-19T09:06:54.564Z,1408.00
2023-05-19T09:07:54.256Z,1403.00
2023-05-19T09:08:54.242Z,1395.00
2023-05-19T09:09:54.200Z,1383.00
2023-05-19T09:10:54.226Z,1371.00
2023-05-19T09:11:54.215Z,1373.00
2023-05-19T09:12:54.214Z,1359.00
2023-05-19T09:13:54.228Z,1365.00
2023-05-19T09:14:54.207Z,1369.00
2023-05-19T09:15:54.190Z,1392.00
2023-05-19T09:16:54.256Z,1405.00
2023-05-19T09:17:54.239Z,1411.00
2023-05-19T09:18:54.217Z,1425.00
2023-05-19T09:19:54.161Z,1444.00
2023-05-19T09:20:54.203Z,1445.00
2023-05-19T09:21:54.188Z,1447.00
2023-05-19T09:22:56.116Z,1424.00
2023-05-19T09:23:54.157Z,1447.00
2023-05-19T09:24:54.122Z,1445.00
2023-05-19T09:25:54.127Z,1453.00
2023-05-19T09:26:54.102Z,1446.00
2023-05-19T09:27:54.116Z,1448.00
2023-05-19T09:28:54.087Z,1412.00
2023-05-19T09:29:54.105Z,1348.00
2023-05-19T09:30:54.120Z,1329.00
2023-05-19T09:31:54.354Z,1348.00
2023-05-19T09:32:54.194Z,1333.00
2023-05-19T09:33:54.100Z,1349.00
2023-05-19T09:34:54.093Z,1387.00
2023-05-19T09:35:54.060Z,1370.00
2023-05-19T09:36:54.185Z,1357.00
2023-05-19T09:37:54.077Z,1353.00
2023-05-19T09:38:54.058Z,1339.00
2023-05-19T09:39:54.079Z,1326.00
2023-05-19T09:40:54.095Z,1381.00
2023-05-19T09:41:54.162Z,1341.00
2023-05-19T09:42:54.203Z,1346.00
2023-05-19T09:43:54.290Z,1332.00
2023-05-19T09:44:54.253Z,1362.00
2023-05-19T09:45:54.319Z,1350.00
2023-05-19T09:46:54.366Z,1344.00
2023-05-19T09:47:54.505Z,1345.00
2023-05-19T09:48:54.433Z,1350.00
2023-05-19T09:49:54.437Z,1317.00
2023-05-19T09:50:54.527Z,1249.00
2023-05-19T09:51:54.620Z,1251.00
2023-05-19T09:52:54.586Z,1225.00
2023-05-19T09:53:54.634Z,1206.00
2023-05-19T09:54:54.697Z,1203.00
2023-05-19T09:55:54.700Z,1207.00
2023-05-19T09:56:54.764Z,1223.00
2023-05-19T09:57:54.825Z,1263.00
2023-05-19T09:58:54.845Z,1274.00
2023-05-19T09:59:54.919Z,1290.00
2023-05-19T10:00:54.989Z,1280.00
2023-05-19T10:01:55.117Z,1279.00
2023-05-19T10:02:55.116Z,1285.00
2023-05-19T10:03:55.166Z,1277.00
2023-05-19T10:04:55.298Z,1237.00
2023-05-19T10:05:55.326Z,1265.00
2023-05-19T10:06:55.359Z,1209.00
2023-05-19T10:07:55.466Z,1242.00
2023-05-19T10:08:55.471Z,1196.00
2023-05-19T10:09:56.702Z,1214.00
2023-05-19T10:10:55.583Z,1249.00
2023-05-19T10:11:55.673Z,1231.00
2023-05-19T10:12:55.749Z,1201.00
2023-05-19T10:13:55.788Z,1226.00
2023-05-19T10:14:55.839Z,1279.00
2023-05-19T10:15:59.334Z,1290.00
2023-05-19T10:16:56.075Z,1250.00
2023-05-19T10:17:55.927Z,1158.00
2023-05-19T10:18:55.957Z,1131.00
2023-05-19T10:19:55.860Z,1116.00
2023-05-19T10:20:55.885Z,1135.00
2023-05-19T10:21:55.886Z,1156.00
2023-05-19T10:22:55.942Z,1173.00
2023-05-19T10:23:55.881Z,1228.00
2023-05-19T10:24:55.873Z,1203.00
2023-05-19T10:25:55.953Z,1173.00
2023-05-19T10:26:55.839Z,1132.00
2023-05-19T10:27:55.839Z,1121.00
2023-05-19T10:28:55.832Z,1145.00
2023-05-19T10:29:55.809Z,1164.00
2023-05-19T10:30:55.813Z,1198.00
2023-05-19T10:31:55.813Z,1157.00
2023-05-19T10:32:55.851Z,1200.00
2023-05-19T10:33:55.800Z,1223.00
2023-05-19T10:34:55.811Z,1217.00
2023-05-19T10:35:55.817Z,1226.00
2023-05-19T10:36:55.774Z,1236.00
2023-05-19T10:37:55.783Z,1213.00
2023-05-19T10:38:55.754Z,1220.00
2023-05-19T10:39:55.795Z,1174.00
2023-05-19T10:40:55.775Z,1205.00
2023-05-19T10:41:55.765Z,1209.00
2023-05-19T10:42:55.767Z,1231.00
2023-05-19T10:43:55.764Z,1302.00
2023-05-19T10:44:55.725Z,1311.00
2023-05-19T10:45:55.775Z,1318.00
2023-05-19T10:46:56.922Z,1318.00
2023-05-19T10:47:55.850Z,1341.00
2023-05-19T10:48:55.869Z,1350.00
2023-05-19T10:49:55.889Z,1319.00
2023-05-19T10:50:55.916Z,1274.00
2023-05-19T10:51:56.008Z,1260.00
2023-05-19T10:52:55.985Z,1297.00
2023-05-19T10:53:56.057Z,1336.00
2023-05-19T10:54:56.031Z,1356.00
2023-05-19T10:55:56.292Z,1374.00
2023-05-19T10:56:56.107Z,1360.00
2023-05-19T10:57:56.130Z,1391.00
2023-05-19T10:58:56.185Z,1419.00
2023-05-19T10:59:56.186Z,1478.00
2023-05-19T11:00:56.230Z,1475.00
2023-05-19T11:01:56.272Z,1466.00
2023-05-19T11:02:56.428Z,1429.00
2023-05-19T11:03:56.336Z,1423.00
2023-05-19T11:04:56.294Z,1425.00
2023-05-19T11:05:56.345Z,1402.00
2023-05-19T11:06:56.356Z,1426.00
2023-05-19T11:07:56.414Z,1429.00
2023-05-19T11:08:56.395Z,1409.00
2023-05-19T11:09:56.436Z,1404.00
2023-05-19T11:10:56.419Z,1407.00
2023-05-19T11:11:56.439Z,1409.00
2023-05-19T11:13:56.558Z,1461.00
2023-05-19T11:14:56.477Z,1466.00
2023-05-19T11:15:56.452Z,1469.00
2023-05-19T11:16:56.545Z,1453.00
2023-05-19T11:17:56.536Z,1431.00
2023-05-19T11:18:56.562Z,1351.00
2023-05-19T11:19:56.528Z,1327.00
2023-05-19T11:20:56.536Z,1287.00
2023-05-19T11:21:56.518Z,1295.00
2023-05-19T11:22:56.555Z,1309.00
2023-05-19T11:23:56.612Z,1336.00
2023-05-19T11:24:56.618Z,1357.00
2023-05-19T11:25:56.575Z,1353.00
2023-05-19T11:26:56.568Z,1375.00
2023-05-19T11:27:56.601Z,1411.00
2023-05-19T11:28:56.597Z,1422.00
2023-05-19T11:29:56.620Z,1437.00
2023-05-19T11:30:56.628Z,1444.00
2023-05-19T11:31:56.666Z,1462.00
2023-05-19T11:32:56.706Z,1454.00
2023-05-19T11:33:56.657Z,1446.00
2023-05-19T11:34:56.641Z,1468.00
2023-05-19T11:35:56.663Z,1454.00
2023-05-19T11:36:56.682Z,1445.00
2023-05-19T11:37:56.673Z,1465.00
2023-05-19T11:38:56.640Z,1464.00
2023-05-19T11:39:56.672Z,1480.00
2023-05-19T11:40:56.677Z,1443.00
2023-05-19T11:41:56.663Z,1464.00
2023-05-19T11:42:57.580Z,1465.00
2023-05-19T11:43:56.685Z,1459.00
2023-05-19T11:44:56.632Z,1466.00
2023-05-19T11:45:56.723Z,1489.00
2023-05-19T11:46:56.703Z,1465.00
2023-05-19T11:48:02.755Z,1467.00
2023-05-19T11:48:57.668Z,1468.00
2023-05-19T11:49:56.669Z,1469.00
2023-05-19T11:50:56.670Z,1468.00
2023-05-19T11:51:56.652Z,1469.00
2023-05-19T11:52:56.646Z,1433.00
2023-05-19T11:53:56.634Z,1411.00
2023-05-19T11:54:56.594Z,1411.00
2023-05-19T11:55:56.659Z,1412.00
2023-05-19T11:56:56.601Z,1410.00
2023-05-19T11:58:03.964Z,1414.00
2023-05-19T11:58:57.630Z,1416.00
2023-05-19T11:59:56.589Z,1419.00
2023-05-19T12:00:56.609Z,1426.00
2023-05-19T12:01:56.591Z,1424.00
2023-05-19T12:02:56.690Z,1438.00
2023-05-19T12:03:56.713Z,1446.00
2023-05-19T12:04:56.566Z,1463.00
2023-05-19T12:05:56.672Z,1438.00
2023-05-19T12:06:56.564Z,1341.00
2023-05-19T12:07:56.534Z,1302.00
2023-05-19T12:08:56.558Z,1333.00
2023-05-19T12:09:56.627Z,1323.00
2023-05-19T12:10:56.647Z,1310.00
2023-05-19T12:11:56.683Z,1341.00